createdAt,value
2022-11-01T00:02:25.700Z,10.38
2022-11-01T00:05:27.871Z,10.35
2022-11-01T00:08:30.009Z,10.28
2022-11-01T00:11:32.151Z,10.27
2022-11-01T00:14:34.330Z,10.19
2022-11-01T00:17:36.517Z,10.32
2022-11-01T00:20:38.651Z,10.14
2022-11-01T00:23:41.289Z,10.12
2022-11-01T00:26:43.495Z,10.09
2022-11-01T00:29:45.652Z,10.20
2022-11-01T00:32:47.827Z,10.25
2022-11-01T00:35:50.151Z,10.08
2022-11-01T00:38:52.841Z,10.10
2022-11-01T00:41:55.049Z,10.08
2022-11-01T00:44:57.200Z,10.11
2022-11-01T00:47:59.773Z,10.09
2022-11-01T00:51:02.224Z,10.11
2022-11-01T00:54:04.527Z,10.27
2022-11-01T00:57:06.895Z,10.27
2022-11-01T01:00:11.171Z,10.44
2022-11-01T01:03:13.345Z,10.49
2022-11-01T01:06:15.502Z,10.45
2022-11-01T01:09:17.700Z,10.48
2022-11-01T01:12:19.848Z,10.33
2022-11-01T01:15:22.128Z,10.31
2022-11-01T01:18:24.302Z,10.33
2022-11-01T01:21:26.599Z,10.29
2022-11-01T01:24:28.771Z,10.29
2022-11-01T01:27:30.908Z,10.32
2022-11-01T01:30:33.105Z,10.14
2022-11-01T01:33:35.442Z,10.18
2022-11-01T01:36:37.692Z,10.25
2022-11-01T01:39:39.901Z,10.25
2022-11-01T01:42:43.077Z,10.18
2022-11-01T01:45:45.255Z,10.12
2022-11-01T01:48:51.889Z,10.16
2022-11-01T01:51:54.024Z,10.17
2022-11-01T01:54:57.104Z,10.14
2022-11-01T01:57:59.428Z,10.12
2022-11-01T02:01:01.802Z,10.13
2022-11-01T02:04:05.717Z,10.20
2022-11-01T02:07:08.588Z,10.19
2022-11-01T02:10:11.661Z,10.34
2022-11-01T02:13:14.774Z,10.19
2022-11-01T02:16:38.599Z,10.25
2022-11-01T02:19:54.865Z,10.28
2022-11-01T02:23:27.849Z,10.10
2022-11-01T02:26:29.893Z,10.09
2022-11-01T02:29:41.103Z,10.15
2022-11-01T02:33:07.916Z,9.98
2022-11-01T02:36:40.346Z,10.07
2022-11-01T02:39:48.311Z,10.07
2022-11-01T02:42:54.006Z,10.00
2022-11-01T02:45:57.442Z,9.86
2022-11-01T02:48:59.579Z,9.94
2022-11-01T02:52:02.370Z,9.91
2022-11-01T02:55:30.089Z,9.89
2022-11-01T02:58:32.680Z,10.01
2022-11-01T03:01:36.119Z,9.81
2022-11-01T03:04:38.417Z,9.75
2022-11-01T03:07:41.799Z,9.77
2022-11-01T03:10:53.451Z,9.86
2022-11-01T03:14:01.574Z,9.92
2022-11-01T03:17:28.230Z,9.95
2022-11-01T03:20:48.485Z,9.91
2022-11-01T03:23:56.944Z,9.99
2022-11-01T03:27:04.420Z,10.02
2022-11-01T03:30:08.952Z,9.97
2022-11-01T03:33:13.923Z,10.09
2022-11-01T03:36:18.228Z,9.98
2022-11-01T03:39:35.040Z,9.98
2022-11-01T03:42:38.060Z,9.99
2022-11-01T03:45:40.525Z,10.01
2022-11-01T03:48:42.776Z,10.12
2022-11-01T03:51:45.114Z,10.41
2022-11-01T03:54:47.267Z,10.34
2022-11-01T03:57:57.174Z,10.38
2022-11-01T04:00:59.386Z,10.58
2022-11-01T04:04:02.038Z,10.70
2022-11-01T04:07:04.150Z,10.50
2022-11-01T04:10:07.239Z,10.41
2022-11-01T04:13:09.374Z,10.29
2022-11-01T04:16:29.775Z,10.15
2022-11-01T04:19:50.717Z,10.08
2022-11-01T04:22:52.899Z,10.08
2022-11-01T04:25:55.230Z,9.99
2022-11-01T04:28:57.759Z,9.98
2022-11-01T04:32:00.130Z,9.98
2022-11-01T04:35:02.307Z,9.93
2022-11-01T04:38:05.439Z,9.96
2022-11-01T04:41:07.969Z,9.91
2022-11-01T04:44:10.379Z,9.91
2022-11-01T04:47:12.582Z,10.00
2022-11-01T04:50:14.733Z,9.95
2022-11-01T04:53:16.919Z,10.11
2022-11-01T04:56:19.086Z,10.07
2022-11-01T04:59:21.217Z,9.98
2022-11-01T05:02:24.205Z,9.95
2022-11-01T05:05:26.398Z,9.99
2022-11-01T05:08:28.731Z,9.94
2022-11-01T05:11:30.886Z,9.93
2022-11-01T05:14:33.101Z,9.90
2022-11-01T05:17:35.347Z,9.90
2022-11-01T05:20:37.491Z,9.91
2022-11-01T05:23:39.773Z,9.95
2022-11-01T05:26:42.098Z,10.00
2022-11-01T05:29:44.358Z,10.15
2022-11-01T05:32:46.563Z,10.12
2022-11-01T05:35:48.767Z,10.16
2022-11-01T05:38:50.969Z,9.83
2022-11-01T05:41:55.584Z,9.82
2022-11-01T05:45:00.502Z,9.74
2022-11-01T05:48:03.784Z,9.68
2022-11-01T05:51:06.054Z,9.71
2022-11-01T05:54:08.268Z,9.59
2022-11-01T05:57:10.451Z,9.57
2022-11-01T06:00:12.885Z,9.51
2022-11-01T06:03:15.061Z,9.56
2022-11-01T06:06:17.320Z,9.59
2022-11-01T06:09:19.450Z,9.66
2022-11-01T06:12:24.043Z,9.62
2022-11-01T06:15:26.176Z,9.65
2022-11-01T06:18:28.520Z,9.59
2022-11-01T06:21:30.658Z,9.54
2022-11-01T06:24:33.576Z,9.56
2022-11-01T06:27:35.740Z,9.74
2022-11-01T06:30:41.063Z,9.75
2022-11-01T06:33:44.822Z,9.86
2022-11-01T06:36:47.610Z,9.65
2022-11-01T06:39:49.762Z,9.62
2022-11-01T06:42:51.941Z,9.54
2022-11-01T06:45:54.199Z,9.59
2022-11-01T06:48:59.193Z,9.60
2022-11-01T06:52:01.365Z,9.57
2022-11-01T06:55:08.234Z,9.54
2022-11-01T06:58:11.461Z,9.61
2022-11-01T07:01:13.968Z,9.60
2022-11-01T07:04:16.135Z,9.57
2022-11-01T07:07:18.254Z,9.62
2022-11-01T07:10:20.550Z,9.71
2022-11-01T07:13:22.780Z,9.67
2022-11-01T07:16:25.480Z,9.76
2022-11-01T07:19:27.676Z,9.97
2022-11-01T07:22:29.867Z,9.87
2022-11-01T07:25:32.988Z,10.06
2022-11-01T07:28:35.271Z,10.10
2022-11-01T07:31:38.911Z,10.12
2022-11-01T07:34:41.098Z,10.13
2022-11-01T07:37:43.304Z,10.12
2022-11-01T07:40:49.520Z,10.12
2022-11-01T07:43:51.697Z,10.01
2022-11-01T07:46:53.886Z,10.10
2022-11-01T07:49:56.133Z,10.16
2022-11-01T07:53:05.410Z,10.18
2022-11-01T07:56:08.009Z,10.23
2022-11-01T07:59:10.151Z,10.32
2022-11-01T08:02:12.524Z,10.19
2022-11-01T08:05:14.996Z,10.19
2022-11-01T08:08:17.412Z,10.16
2022-11-01T08:11:19.574Z,10.36
2022-11-01T08:14:21.668Z,10.31
2022-11-01T08:17:23.853Z,10.26
2022-11-01T08:20:27.451Z,10.26
2022-11-01T08:23:29.688Z,10.31
2022-11-01T08:26:31.803Z,10.24
2022-11-01T08:29:34.036Z,10.26
2022-11-01T08:32:36.176Z,10.36
2022-11-01T08:35:38.347Z,10.33
2022-11-01T08:38:40.486Z,10.40
2022-11-01T08:41:42.693Z,10.35
2022-11-01T08:44:45.419Z,10.41
2022-11-01T08:47:47.693Z,10.49
2022-11-01T08:50:49.900Z,10.51
2022-11-01T08:53:57.731Z,10.60
2022-11-01T08:57:01.852Z,10.59
2022-11-01T09:00:07.061Z,10.67
2022-11-01T09:03:09.225Z,10.74
2022-11-01T09:06:11.453Z,10.80
2022-11-01T09:09:13.730Z,10.83
2022-11-01T09:12:17.385Z,10.75
2022-11-01T09:15:22.238Z,10.87
2022-11-01T09:18:24.560Z,10.92
2022-11-01T09:21:31.411Z,10.79
2022-11-01T09:24:34.168Z,10.61
2022-11-01T09:27:36.357Z,10.55
2022-11-01T09:30:45.140Z,10.74
2022-11-01T09:33:58.044Z,10.63
2022-11-01T09:37:00.197Z,10.57
2022-11-01T09:40:03.530Z,10.71
2022-11-01T09:43:08.961Z,10.86
2022-11-01T09:46:15.635Z,10.91
2022-11-01T09:49:29.219Z,10.87
2022-11-01T09:52:31.477Z,10.83
2022-11-01T09:55:36.519Z,10.89
2022-11-01T09:58:56.941Z,10.78
2022-11-01T10:02:15.425Z,10.85
2022-11-01T10:05:21.792Z,10.81
2022-11-01T10:08:38.190Z,10.76
2022-11-01T10:11:40.341Z,10.76
2022-11-01T10:14:54.663Z,10.63
2022-11-01T10:18:02.085Z,10.63
2022-11-01T10:21:10.380Z,10.97
2022-11-01T10:24:30.967Z,11.08
2022-11-01T10:28:07.750Z,11.00
2022-11-01T10:31:18.962Z,11.07
2022-11-01T10:34:30.853Z,11.19
2022-11-01T10:38:03.927Z,11.34
2022-11-01T10:41:58.485Z,11.25
2022-11-01T10:45:08.782Z,11.42
2022-11-01T10:48:40.911Z,11.21
2022-11-01T10:51:43.540Z,11.33
2022-11-01T10:54:46.667Z,11.05
2022-11-01T10:57:57.434Z,11.26
2022-11-01T11:01:05.426Z,11.38
2022-11-01T11:04:10.973Z,11.39
2022-11-01T11:07:16.489Z,11.48
2022-11-01T11:10:27.190Z,11.50
2022-11-01T11:13:29.609Z,11.44
2022-11-01T11:16:37.051Z,11.52
2022-11-01T11:19:39.403Z,11.55
2022-11-01T11:22:42.571Z,11.45
2022-11-01T11:25:45.665Z,11.34
2022-11-01T11:28:50.273Z,11.29
2022-11-01T11:31:57.710Z,11.36
2022-11-01T11:35:02.887Z,11.40
2022-11-01T11:38:09.303Z,11.33
2022-11-01T11:41:13.205Z,11.30
2022-11-01T11:44:34.320Z,11.44
2022-11-01T11:47:37.880Z,11.26
2022-11-01T11:50:40.459Z,11.38
2022-11-01T11:53:42.723Z,11.40
2022-11-01T11:56:46.177Z,11.26
2022-11-01T11:59:57.180Z,11.38
2022-11-01T12:03:02.971Z,11.29
2022-11-01T12:06:09.005Z,11.48
2022-11-01T12:09:46.639Z,11.37
2022-11-01T12:12:51.983Z,11.64
2022-11-01T12:16:07.921Z,11.69
2022-11-01T12:19:27.328Z,11.56
2022-11-01T12:22:32.386Z,11.57
2022-11-01T12:25:35.851Z,11.84
2022-11-01T12:28:40.635Z,11.90
2022-11-01T12:31:44.760Z,11.93
2022-11-01T12:34:48.994Z,11.98
2022-11-01T12:37:57.173Z,11.93
2022-11-01T12:41:12.821Z,11.92
2022-11-01T12:44:32.467Z,11.52
2022-11-01T12:47:42.463Z,11.50
2022-11-01T12:51:03.869Z,11.63
2022-11-01T12:54:29.110Z,11.92
2022-11-01T12:57:31.747Z,11.91
2022-11-01T13:00:49.231Z,12.12
2022-11-01T13:04:18.292Z,12.22
2022-11-01T13:07:44.949Z,11.99
2022-11-01T13:10:47.745Z,11.74
2022-11-01T13:14:05.198Z,11.79
2022-11-01T13:17:17.418Z,11.85
2022-11-01T13:20:31.655Z,11.38
2022-11-01T13:23:36.969Z,11.43
2022-11-01T13:27:05.187Z,11.33
2022-11-01T13:30:15.503Z,11.38
2022-11-01T13:33:42.835Z,11.26
2022-11-01T13:37:18.760Z,11.38
2022-11-01T13:40:36.689Z,11.27
2022-11-01T13:43:44.880Z,11.48
2022-11-01T13:47:10.363Z,11.52
2022-11-01T13:50:15.291Z,11.73
2022-11-01T13:53:36.832Z,11.64
2022-11-01T13:56:48.714Z,11.76
2022-11-01T13:59:50.813Z,11.67
2022-11-01T14:02:57.911Z,11.64
2022-11-01T14:06:26.618Z,11.59
2022-11-01T14:09:31.341Z,11.52
2022-11-01T14:12:43.330Z,11.49
2022-11-01T14:15:54.950Z,11.50
2022-11-01T14:19:03.358Z,11.55
2022-11-01T14:22:28.917Z,11.49
2022-11-01T14:25:32.444Z,11.49
2022-11-01T14:28:42.710Z,11.49
2022-11-01T14:31:46.499Z,11.54
2022-11-01T14:35:00.065Z,11.54
2022-11-01T14:38:10.305Z,11.51
2022-11-01T14:41:14.182Z,11.49
2022-11-01T14:44:26.009Z,11.56
2022-11-01T14:47:38.036Z,11.34
2022-11-01T14:51:11.608Z,11.46
2022-11-01T14:54:26.333Z,11.33
2022-11-01T14:57:30.601Z,11.18
2022-11-01T15:00:32.797Z,10.89
2022-11-01T15:03:34.954Z,10.72
2022-11-01T15:06:42.305Z,10.71
2022-11-01T15:09:56.071Z,10.64
2022-11-01T15:13:00.109Z,10.67
2022-11-01T15:16:05.142Z,10.70
2022-11-01T15:19:14.891Z,10.61
2022-11-01T15:22:18.199Z,10.67
2022-11-01T15:25:24.930Z,10.69
2022-11-01T15:28:40.900Z,10.82
2022-11-01T15:31:50.616Z,10.90
2022-11-01T15:34:55.182Z,10.87
2022-11-01T15:37:58.092Z,10.90
2022-11-01T15:41:19.838Z,10.97
2022-11-01T15:44:27.169Z,11.02
2022-11-01T15:47:29.347Z,10.94
2022-11-01T15:50:35.468Z,10.97
2022-11-01T15:53:39.297Z,11.01
2022-11-01T15:56:50.744Z,11.01
2022-11-01T15:59:58.863Z,10.95
2022-11-01T16:03:05.888Z,10.96
2022-11-01T16:06:19.910Z,10.95
2022-11-01T16:09:21.981Z,10.88
2022-11-01T16:12:27.277Z,10.94
2022-11-01T16:15:30.472Z,10.87
2022-11-01T16:18:37.491Z,10.89
2022-11-01T16:21:39.922Z,10.88
2022-11-01T16:24:43.204Z,10.98
2022-11-01T16:28:26.915Z,10.96
2022-11-01T16:31:30.808Z,10.95
2022-11-01T16:34:35.123Z,10.92
2022-11-01T16:37:44.435Z,10.95
2022-11-01T16:40:50.841Z,10.95
2022-11-01T16:43:54.894Z,10.84
2022-11-01T16:46:57.036Z,10.84
2022-11-01T16:49:59.264Z,10.83
2022-11-01T16:53:01.551Z,10.92
2022-11-01T16:56:34.900Z,10.94
2022-11-01T16:59:33.734Z,10.94
2022-11-01T17:02:35.930Z,11.00
2022-11-01T17:05:38.173Z,10.93
2022-11-01T17:08:40.817Z,10.92
2022-11-01T17:11:50.520Z,10.95
2022-11-01T17:14:53.631Z,10.93
2022-11-01T17:17:56.980Z,10.92
2022-11-01T17:21:01.141Z,10.76
2022-11-01T17:24:04.733Z,10.83
2022-11-01T17:27:07.436Z,10.87
2022-11-01T17:30:10.070Z,10.93
2022-11-01T17:33:12.536Z,10.97
2022-11-01T17:36:15.796Z,10.86
2022-11-01T17:39:17.969Z,10.82
2022-11-01T17:42:20.785Z,10.82
2022-11-01T17:45:23.699Z,10.92
2022-11-01T17:48:26.177Z,10.84
2022-11-01T17:51:28.555Z,10.89
2022-11-01T17:54:30.880Z,10.94
2022-11-01T17:57:34.373Z,11.01
2022-11-01T18:00:40.204Z,11.02
2022-11-01T18:03:42.584Z,10.82
2022-11-01T18:06:45.088Z,10.84
2022-11-01T18:09:47.516Z,10.90
2022-11-01T18:13:00.924Z,10.92
2022-11-01T18:16:07.542Z,10.84
2022-11-01T18:19:35.173Z,10.93
2022-11-01T18:22:41.719Z,10.92
2022-11-01T18:25:47.585Z,10.88
2022-11-01T18:28:54.358Z,10.93
2022-11-01T18:32:12.421Z,10.94
2022-11-01T18:35:30.656Z,10.87
2022-11-01T18:38:56.404Z,10.71
2022-11-01T18:42:00.748Z,10.86
2022-11-01T18:45:31.017Z,10.90
2022-11-01T18:48:38.567Z,10.99
2022-11-01T18:51:40.792Z,10.88
2022-11-01T18:54:53.608Z,10.78
2022-11-01T18:58:21.012Z,10.86
2022-11-01T19:01:23.402Z,11.02
2022-11-01T19:04:29.964Z,10.98
2022-11-01T19:07:57.085Z,10.97
2022-11-01T19:10:54.942Z,11.12
2022-11-01T19:13:59.438Z,11.06
2022-11-01T19:17:03.563Z,11.04
2022-11-01T19:20:34.843Z,11.08
2022-11-01T19:23:42.874Z,10.97
2022-11-01T19:26:45.285Z,11.01
2022-11-01T19:29:52.850Z,10.86
2022-11-01T19:33:10.714Z,10.86
2022-11-01T19:36:20.479Z,10.81
2022-11-01T19:39:41.608Z,10.80
2022-11-01T19:42:45.253Z,10.82
2022-11-01T19:45:51.137Z,10.81
2022-11-01T19:48:53.515Z,10.84
2022-11-01T19:52:08.191Z,10.91
2022-11-01T19:55:36.657Z,10.91
2022-11-01T19:58:41.022Z,10.84
2022-11-01T20:01:46.280Z,10.83
2022-11-01T20:04:56.420Z,10.79
2022-11-01T20:08:20.927Z,10.78
2022-11-01T20:11:23.393Z,10.86
2022-11-01T20:14:25.857Z,10.77
2022-11-01T20:17:28.539Z,10.74
2022-11-01T20:20:32.445Z,10.72
2022-11-01T20:23:35.684Z,10.81
2022-11-01T20:26:38.189Z,10.86
2022-11-01T20:29:40.348Z,10.74
2022-11-01T20:32:42.957Z,10.85
2022-11-01T20:35:47.433Z,10.78
2022-11-01T20:38:49.883Z,10.76
2022-11-01T20:41:52.231Z,10.95
2022-11-01T20:44:54.648Z,10.97
2022-11-01T20:47:57.382Z,11.05
2022-11-01T20:51:00.001Z,10.95
2022-11-01T20:54:02.380Z,11.06
2022-11-01T20:57:04.687Z,10.99
2022-11-01T21:00:09.939Z,10.98
2022-11-01T21:03:19.817Z,11.02
2022-11-01T21:06:22.531Z,11.02
2022-11-01T21:09:30.702Z,11.02
2022-11-01T21:12:44.506Z,10.97
2022-11-01T21:15:46.922Z,10.93
2022-11-01T21:18:51.224Z,10.74
2022-11-01T21:21:58.270Z,10.77
2022-11-01T21:25:00.415Z,10.89
2022-11-01T21:28:20.343Z,10.70
2022-11-01T21:31:26.737Z,10.74
2022-11-01T21:34:31.275Z,10.97
2022-11-01T21:37:33.612Z,10.96
2022-11-01T21:40:36.834Z,10.94
2022-11-01T21:43:38.990Z,10.81
2022-11-01T21:46:42.600Z,10.80
2022-11-01T21:49:44.878Z,10.82
2022-11-01T21:52:47.301Z,10.87
2022-11-01T21:55:49.489Z,10.94
2022-11-01T21:58:51.615Z,11.00
2022-11-01T22:01:55.286Z,11.10
2022-11-01T22:04:57.547Z,11.11
2022-11-01T22:07:59.735Z,11.14
2022-11-01T22:11:01.950Z,10.92
2022-11-01T22:14:04.495Z,10.82
2022-11-01T22:17:06.649Z,10.70
2022-11-01T22:20:09.167Z,10.77
2022-11-01T22:23:11.328Z,10.77
2022-11-01T22:26:13.523Z,10.72
2022-11-01T22:29:15.661Z,10.74
2022-11-01T22:32:18.398Z,10.75
2022-11-01T22:35:21.567Z,10.80
2022-11-01T22:38:23.854Z,10.80
2022-11-01T22:41:29.897Z,10.66
2022-11-01T22:44:39.377Z,10.52
2022-11-01T22:47:41.604Z,10.42
2022-11-01T22:50:43.781Z,10.59
2022-11-01T22:53:46.047Z,10.42
2022-11-01T22:57:02.267Z,10.39
2022-11-01T23:00:36.187Z,10.29
2022-11-01T23:03:41.449Z,10.30
2022-11-01T23:06:43.658Z,10.03
2022-11-01T23:09:45.790Z,9.81
2022-11-01T23:13:06.908Z,9.81
2022-11-01T23:16:25.136Z,9.80
2022-11-01T23:19:27.470Z,9.85
2022-11-01T23:22:32.422Z,9.80
2022-11-01T23:25:34.636Z,9.82
2022-11-01T23:28:40.567Z,9.63
2022-11-01T23:31:42.731Z,9.50
2022-11-01T23:34:45.690Z,9.47
2022-11-01T23:37:49.072Z,9.10
2022-11-01T23:40:52.977Z,9.15
2022-11-01T23:43:57.046Z,9.15
2022-11-01T23:47:11.219Z,9.17
2022-11-01T23:50:19.276Z,9.17
2022-11-01T23:53:29.842Z,9.13
2022-11-01T23:56:32.087Z,9.08
2022-11-01T23:59:34.247Z,9.02
